sensor_id;sensor_type;location;lat;lon;timestamp;temperature;humidity
10304;DHT22;5197;48.152;8.590;2022-12-18T00:01:17;-7.90;28.50
10304;DHT22;5197;48.152;8.590;2022-12-18T00:03:45;-7.90;28.60
10304;DHT22;5197;48.152;8.590;2022-12-18T00:06:13;-7.90;29.50
10304;DHT22;5197;48.152;8.590;2022-12-18T00:08:41;-7.80;28.70
10304;DHT22;5197;48.152;8.590;2022-12-18T00:11:15;-7.80;28.60
10304;DHT22;5197;48.152;8.590;2022-12-18T00:13:42;-7.80;28.50
10304;DHT22;5197;48.152;8.590;2022-12-18T00:16:13;-7.70;28.80
10304;DHT22;5197;48.152;8.590;2022-12-18T00:18:41;-7.70;29.00
10304;DHT22;5197;48.152;8.590;2022-12-18T00:21:11;-7.60;29.20
10304;DHT22;5197;48.152;8.590;2022-12-18T00:23:40;-7.50;29.40
10304;DHT22;5197;48.152;8.590;2022-12-18T00:26:16;-7.50;29.50
10304;DHT22;5197;48.152;8.590;2022-12-18T00:28:44;-7.50;29.60
10304;DHT22;5197;48.152;8.590;2022-12-18T00:31:14;-7.40;29.90
10304;DHT22;5197;48.152;8.590;2022-12-18T00:33:42;-7.40;29.60
10304;DHT22;5197;48.152;8.590;2022-12-18T00:36:17;-7.40;29.40
10304;DHT22;5197;48.152;8.590;2022-12-18T00:38:46;-7.40;29.50
10304;DHT22;5197;48.152;8.590;2022-12-18T00:41:15;-7.50;29.60
10304;DHT22;5197;48.152;8.590;2022-12-18T00:44:03;-7.50;29.90
10304;DHT22;5197;48.152;8.590;2022-12-18T00:46:30;-7.50;30.10
10304;DHT22;5197;48.152;8.590;2022-12-18T00:48:57;-7.50;30.10
10304;DHT22;5197;48.152;8.590;2022-12-18T00:51:25;-7.60;30.30
10304;DHT22;5197;48.152;8.590;2022-12-18T00:53:52;-7.60;30.30
10304;DHT22;5197;48.152;8.590;2022-12-18T00:56:21;-7.60;30.80
10304;DHT22;5197;48.152;8.590;2022-12-18T00:58:48;-7.60;31.10
10304;DHT22;5197;48.152;8.590;2022-12-18T01:01:16;-7.50;31.90
10304;DHT22;5197;48.152;8.590;2022-12-18T01:03:44;-7.50;31.90
10304;DHT22;5197;48.152;8.590;2022-12-18T01:06:14;-7.40;32.10
10304;DHT22;5197;48.152;8.590;2022-12-18T01:08:42;-7.40;31.90
10304;DHT22;5197;48.152;8.590;2022-12-18T01:11:11;-7.40;31.70
10304;DHT22;5197;48.152;8.590;2022-12-18T01:13:39;-7.40;31.70
10304;DHT22;5197;48.152;8.590;2022-12-18T01:16:07;-7.40;32.00
10304;DHT22;5197;48.152;8.590;2022-12-18T01:18:35;-7.40;32.10
10304;DHT22;5197;48.152;8.590;2022-12-18T01:21:11;-7.30;32.40
10304;DHT22;5197;48.152;8.590;2022-12-18T01:23:38;-7.30;32.60
10304;DHT22;5197;48.152;8.590;2022-12-18T01:26:13;-7.30;32.40
10304;DHT22;5197;48.152;8.590;2022-12-18T01:28:40;-7.20;32.70
10304;DHT22;5197;48.152;8.590;2022-12-18T01:31:19;-7.20;33.40
10304;DHT22;5197;48.152;8.590;2022-12-18T01:33:46;-7.20;33.40
10304;DHT22;5197;48.152;8.590;2022-12-18T01:36:34;-7.10;33.40
10304;DHT22;5197;48.152;8.590;2022-12-18T01:39:03;-7.10;33.40
10304;DHT22;5197;48.152;8.590;2022-12-18T01:41:32;-7.00;33.50
10304;DHT22;5197;48.152;8.590;2022-12-18T01:47:28;-6.90;33.10
10304;DHT22;5197;48.152;8.590;2022-12-18T01:49:59;-6.90;32.70
10304;DHT22;5197;48.152;8.590;2022-12-18T01:52:29;-6.80;32.40
10304;DHT22;5197;48.152;8.590;2022-12-18T01:54:57;-6.80;32.30
10304;DHT22;5197;48.152;8.590;2022-12-18T01:57:26;-6.70;32.30
10304;DHT22;5197;48.152;8.590;2022-12-18T01:59:57;-6.70;32.20
10304;DHT22;5197;48.152;8.590;2022-12-18T02:02:27;-6.60;32.50
10304;DHT22;5197;48.152;8.590;2022-12-18T02:04:55;-6.60;32.70
10304;DHT22;5197;48.152;8.590;2022-12-18T02:10:18;-6.50;33.30
10304;DHT22;5197;48.152;8.590;2022-12-18T02:12:48;-6.50;33.80
10304;DHT22;5197;48.152;8.590;2022-12-18T02:17:58;-6.40;34.00
10304;DHT22;5197;48.152;8.590;2022-12-18T02:20:35;-6.40;34.00
10304;DHT22;5197;48.152;8.590;2022-12-18T02:28:41;-6.30;34.00
10304;DHT22;5197;48.152;8.590;2022-12-18T02:31:13;-6.20;34.10
10304;DHT22;5197;48.152;8.590;2022-12-18T02:33:42;-6.20;34.10
10304;DHT22;5197;48.152;8.590;2022-12-18T02:36:11;-6.10;34.30
10304;DHT22;5197;48.152;8.590;2022-12-18T02:38:39;-6.10;34.20
10304;DHT22;5197;48.152;8.590;2022-12-18T02:41:07;-6.10;34.20
10304;DHT22;5197;48.152;8.590;2022-12-18T02:43:34;-6.00;34.30
10304;DHT22;5197;48.152;8.590;2022-12-18T02:48:54;-6.00;34.20
10304;DHT22;5197;48.152;8.590;2022-12-18T02:51:31;-5.90;34.30
10304;DHT22;5197;48.152;8.590;2022-12-18T02:54:11;-5.90;34.30
10304;DHT22;5197;48.152;8.590;2022-12-18T02:56:47;-5.80;34.50
10304;DHT22;5197;48.152;8.590;2022-12-18T02:59:19;-5.80;34.50
10304;DHT22;5197;48.152;8.590;2022-12-18T03:02:08;-5.80;34.50
10304;DHT22;5197;48.152;8.590;2022-12-18T03:04:43;-5.70;34.50
10304;DHT22;5197;48.152;8.590;2022-12-18T03:07:21;-5.70;34.50
10304;DHT22;5197;48.152;8.590;2022-12-18T03:09:51;-5.70;34.60
10304;DHT22;5197;48.152;8.590;2022-12-18T03:12:35;-5.60;34.60
10304;DHT22;5197;48.152;8.590;2022-12-18T03:15:19;-5.60;34.60
10304;DHT22;5197;48.152;8.590;2022-12-18T03:17:56;-7.10;33.40
10304;DHT22;5197;48.152;8.590;2022-12-18T03:20:25;-5.60;34.60
10304;DHT22;5197;48.152;8.590;2022-12-18T03:22:59;-5.60;34.70
10304;DHT22;5197;48.152;8.590;2022-12-18T03:25:31;-5.60;35.10
10304;DHT22;5197;48.152;8.590;2022-12-18T03:28:01;-5.50;34.80
10304;DHT22;5197;48.152;8.590;2022-12-18T03:30:30;-5.50;35.00
10304;DHT22;5197;48.152;8.590;2022-12-18T03:33:12;-5.50;35.50
10304;DHT22;5197;48.152;8.590;2022-12-18T03:35:42;-5.50;35.60
10304;DHT22;5197;48.152;8.590;2022-12-18T03:38:10;-5.40;35.30
10304;DHT22;5197;48.152;8.590;2022-12-18T03:41:04;-5.40;35.40
10304;DHT22;5197;48.152;8.590;2022-12-18T03:49:13;-5.30;36.00
10304;DHT22;5197;48.152;8.590;2022-12-18T03:52:53;-5.30;37.10
10304;DHT22;5197;48.152;8.590;2022-12-18T03:55:02;-5.30;36.90
10304;DHT22;5197;48.152;8.590;2022-12-18T03:57:31;-5.30;36.90
10304;DHT22;5197;48.152;8.590;2022-12-18T04:00:11;-5.30;37.90
10304;DHT22;5197;48.152;8.590;2022-12-18T04:02:43;-5.30;37.70
10304;DHT22;5197;48.152;8.590;2022-12-18T04:05:12;-5.30;37.70
10304;DHT22;5197;48.152;8.590;2022-12-18T04:07:40;-5.30;37.60
10304;DHT22;5197;48.152;8.590;2022-12-18T04:10:12;-5.30;37.70
10304;DHT22;5197;48.152;8.590;2022-12-18T04:12:40;-5.30;37.70
10304;DHT22;5197;48.152;8.590;2022-12-18T04:15:09;-5.30;37.50
10304;DHT22;5197;48.152;8.590;2022-12-18T04:17:37;-5.30;37.50
10304;DHT22;5197;48.152;8.590;2022-12-18T04:20:04;-5.30;37.20
10304;DHT22;5197;48.152;8.590;2022-12-18T04:22:31;-5.30;37.30
10304;DHT22;5197;48.152;8.590;2022-12-18T04:24:58;-5.30;38.90
10304;DHT22;5197;48.152;8.590;2022-12-18T04:27:25;-5.30;37.90
10304;DHT22;5197;48.152;8.590;2022-12-18T04:29:52;-5.30;37.70
10304;DHT22;5197;48.152;8.590;2022-12-18T04:32:19;-5.20;37.70
10304;DHT22;5197;48.152;8.590;2022-12-18T04:34:46;-5.20;37.80
10304;DHT22;5197;48.152;8.590;2022-12-18T04:37:13;-5.20;37.80
10304;DHT22;5197;48.152;8.590;2022-12-18T04:39:40;-5.30;37.90
10304;DHT22;5197;48.152;8.590;2022-12-18T04:42:07;-5.30;38.00
10304;DHT22;5197;48.152;8.590;2022-12-18T04:44:34;-5.30;38.00
10304;DHT22;5197;48.152;8.590;2022-12-18T04:47:01;-5.20;39.20
10304;DHT22;5197;48.152;8.590;2022-12-18T04:49:28;-5.30;38.00
10304;DHT22;5197;48.152;8.590;2022-12-18T04:51:55;-5.30;38.00
10304;DHT22;5197;48.152;8.590;2022-12-18T04:54:22;-5.20;37.90
10304;DHT22;5197;48.152;8.590;2022-12-18T04:56:49;-5.30;38.10
10304;DHT22;5197;48.152;8.590;2022-12-18T04:59:16;-5.30;38.00
10304;DHT22;5197;48.152;8.590;2022-12-18T05:01:43;-5.30;37.90
10304;DHT22;5197;48.152;8.590;2022-12-18T05:04:10;-5.30;39.00
10304;DHT22;5197;48.152;8.590;2022-12-18T05:06:37;-5.30;38.30
10304;DHT22;5197;48.152;8.590;2022-12-18T05:09:04;-5.30;38.90
10304;DHT22;5197;48.152;8.590;2022-12-18T05:11:31;-5.30;39.00
10304;DHT22;5197;48.152;8.590;2022-12-18T05:13:58;-5.30;39.00
10304;DHT22;5197;48.152;8.590;2022-12-18T05:16:25;-5.30;39.10
10304;DHT22;5197;48.152;8.590;2022-12-18T05:18:52;-5.30;38.90
10304;DHT22;5197;48.152;8.590;2022-12-18T05:21:19;-5.30;38.80
10304;DHT22;5197;48.152;8.590;2022-12-18T05:23:47;-5.20;38.80
10304;DHT22;5197;48.152;8.590;2022-12-18T05:26:17;-5.30;38.90
10304;DHT22;5197;48.152;8.590;2022-12-18T05:28:44;-5.30;39.20
10304;DHT22;5197;48.152;8.590;2022-12-18T05:31:13;-5.30;40.00
10304;DHT22;5197;48.152;8.590;2022-12-18T05:33:40;-5.30;40.40
10304;DHT22;5197;48.152;8.590;2022-12-18T05:36:08;-5.30;41.10
10304;DHT22;5197;48.152;8.590;2022-12-18T05:38:37;-5.30;40.60
10304;DHT22;5197;48.152;8.590;2022-12-18T05:41:05;-5.30;40.90
10304;DHT22;5197;48.152;8.590;2022-12-18T05:43:37;-5.30;41.80
10304;DHT22;5197;48.152;8.590;2022-12-18T05:46:09;-5.30;41.70
10304;DHT22;5197;48.152;8.590;2022-12-18T05:48:42;-5.30;41.70
10304;DHT22;5197;48.152;8.590;2022-12-18T05:51:11;-5.20;41.30
10304;DHT22;5197;48.152;8.590;2022-12-18T05:53:39;-5.20;40.80
10304;DHT22;5197;48.152;8.590;2022-12-18T05:56:10;-5.20;40.70
10304;DHT22;5197;48.152;8.590;2022-12-18T05:58:37;-5.20;40.80
10304;DHT22;5197;48.152;8.590;2022-12-18T06:01:09;-5.20;40.70
10304;DHT22;5197;48.152;8.590;2022-12-18T06:03:36;-5.20;41.20
10304;DHT22;5197;48.152;8.590;2022-12-18T06:06:04;-5.20;41.30
10304;DHT22;5197;48.152;8.590;2022-12-18T06:08:31;-5.20;41.80
10304;DHT22;5197;48.152;8.590;2022-12-18T06:10:58;-5.20;43.60
10304;DHT22;5197;48.152;8.590;2022-12-18T06:13:25;-5.10;42.10
10304;DHT22;5197;48.152;8.590;2022-12-18T06:15:52;-5.10;41.80
10304;DHT22;5197;48.152;8.590;2022-12-18T06:18:19;-5.10;42.00
10304;DHT22;5197;48.152;8.590;2022-12-18T06:20:54;-5.10;41.90
10304;DHT22;5197;48.152;8.590;2022-12-18T06:23:22;-5.00;41.90
10304;DHT22;5197;48.152;8.590;2022-12-18T06:25:50;-5.00;41.70
10304;DHT22;5197;48.152;8.590;2022-12-18T06:28:17;-5.00;42.00
10304;DHT22;5197;48.152;8.590;2022-12-18T06:30:45;-5.00;42.20
10304;DHT22;5197;48.152;8.590;2022-12-18T06:33:15;-5.00;41.40
10304;DHT22;5197;48.152;8.590;2022-12-18T06:35:42;-5.00;40.90
10304;DHT22;5197;48.152;8.590;2022-12-18T06:38:09;-5.00;41.10
10304;DHT22;5197;48.152;8.590;2022-12-18T06:40:37;-5.00;40.60
10304;DHT22;5197;48.152;8.590;2022-12-18T06:43:05;-5.00;40.70
10304;DHT22;5197;48.152;8.590;2022-12-18T06:45:33;-5.00;41.00
10304;DHT22;5197;48.152;8.590;2022-12-18T06:48:00;-4.90;41.10
10304;DHT22;5197;48.152;8.590;2022-12-18T06:50:27;-4.90;41.10
10304;DHT22;5197;48.152;8.590;2022-12-18T06:52:54;-4.90;40.70
10304;DHT22;5197;48.152;8.590;2022-12-18T06:55:21;-4.90;40.80
10304;DHT22;5197;48.152;8.590;2022-12-18T06:57:48;-4.90;41.00
10304;DHT22;5197;48.152;8.590;2022-12-18T07:00:15;-4.90;41.30
10304;DHT22;5197;48.152;8.590;2022-12-18T07:02:45;-4.90;41.20
10304;DHT22;5197;48.152;8.590;2022-12-18T07:05:12;-4.90;41.40
10304;DHT22;5197;48.152;8.590;2022-12-18T07:07:39;-4.90;41.30
10304;DHT22;5197;48.152;8.590;2022-12-18T07:10:07;-4.90;41.20
10304;DHT22;5197;48.152;8.590;2022-12-18T07:12:34;-4.90;41.30
10304;DHT22;5197;48.152;8.590;2022-12-18T07:15:01;-4.80;41.00
10304;DHT22;5197;48.152;8.590;2022-12-18T07:17:28;-4.90;41.30
10304;DHT22;5197;48.152;8.590;2022-12-18T07:19:56;-4.90;41.60
10304;DHT22;5197;48.152;8.590;2022-12-18T07:22:25;-4.90;42.10
10304;DHT22;5197;48.152;8.590;2022-12-18T07:24:52;-4.90;41.80
10304;DHT22;5197;48.152;8.590;2022-12-18T07:27:19;-4.90;41.90
10304;DHT22;5197;48.152;8.590;2022-12-18T07:29:46;-4.80;42.00
10304;DHT22;5197;48.152;8.590;2022-12-18T07:32:13;-4.80;42.20
10304;DHT22;5197;48.152;8.590;2022-12-18T07:34:40;-4.80;42.50
10304;DHT22;5197;48.152;8.590;2022-12-18T07:37:07;-4.80;42.60
10304;DHT22;5197;48.152;8.590;2022-12-18T07:39:34;-4.80;42.70
10304;DHT22;5197;48.152;8.590;2022-12-18T07:42:01;-4.60;42.80
10304;DHT22;5197;48.152;8.590;2022-12-18T07:44:47;-4.80;42.30
10304;DHT22;5197;48.152;8.590;2022-12-18T07:47:14;-4.80;42.50
10304;DHT22;5197;48.152;8.590;2022-12-18T07:49:41;-4.70;42.60
10304;DHT22;5197;48.152;8.590;2022-12-18T07:52:08;-4.70;42.50
10304;DHT22;5197;48.152;8.590;2022-12-18T07:54:36;-4.70;42.10
10304;DHT22;5197;48.152;8.590;2022-12-18T07:57:03;-4.70;41.80
10304;DHT22;5197;48.152;8.590;2022-12-18T07:59:42;-4.60;41.70
10304;DHT22;5197;48.152;8.590;2022-12-18T08:02:09;-4.60;41.00
10304;DHT22;5197;48.152;8.590;2022-12-18T08:04:38;-4.70;41.00
10304;DHT22;5197;48.152;8.590;2022-12-18T08:07:04;-4.70;41.40
10304;DHT22;5197;48.152;8.590;2022-12-18T08:09:31;-4.80;42.10
10304;DHT22;5197;48.152;8.590;2022-12-18T08:12:01;-4.70;42.50
10304;DHT22;5197;48.152;8.590;2022-12-18T08:14:29;-4.70;42.80
10304;DHT22;5197;48.152;8.590;2022-12-18T08:16:56;-4.70;42.50
10304;DHT22;5197;48.152;8.590;2022-12-18T08:19:23;-4.70;42.60
10304;DHT22;5197;48.152;8.590;2022-12-18T08:21:50;-4.60;42.40
10304;DHT22;5197;48.152;8.590;2022-12-18T08:24:17;-4.60;42.20
10304;DHT22;5197;48.152;8.590;2022-12-18T08:26:44;-4.60;42.30
10304;DHT22;5197;48.152;8.590;2022-12-18T08:29:31;-4.60;41.80
10304;DHT22;5197;48.152;8.590;2022-12-18T08:31:58;-4.60;41.70
10304;DHT22;5197;48.152;8.590;2022-12-18T08:34:25;-4.60;41.70
10304;DHT22;5197;48.152;8.590;2022-12-18T08:36:52;-4.60;41.80
10304;DHT22;5197;48.152;8.590;2022-12-18T08:39:19;-4.60;42.10
10304;DHT22;5197;48.152;8.590;2022-12-18T08:41:46;-4.50;42.20
10304;DHT22;5197;48.152;8.590;2022-12-18T08:44:36;-4.50;41.90
10304;DHT22;5197;48.152;8.590;2022-12-18T08:47:07;-4.40;42.00
10304;DHT22;5197;48.152;8.590;2022-12-18T08:49:34;-4.40;41.40
10304;DHT22;5197;48.152;8.590;2022-12-18T08:52:02;-4.30;41.10
10304;DHT22;5197;48.152;8.590;2022-12-18T08:54:30;-4.30;40.60
10304;DHT22;5197;48.152;8.590;2022-12-18T08:56:57;-4.30;40.30
10304;DHT22;5197;48.152;8.590;2022-12-18T08:59:28;-4.20;40.30
10304;DHT22;5197;48.152;8.590;2022-12-18T09:01:55;-4.20;40.00
10304;DHT22;5197;48.152;8.590;2022-12-18T09:04:23;-4.20;39.70
10304;DHT22;5197;48.152;8.590;2022-12-18T09:06:50;-4.20;39.00
10304;DHT22;5197;48.152;8.590;2022-12-18T09:09:17;-4.10;39.30
10304;DHT22;5197;48.152;8.590;2022-12-18T09:11:44;-4.10;39.30
10304;DHT22;5197;48.152;8.590;2022-12-18T09:14:11;-4.10;38.70
10304;DHT22;5197;48.152;8.590;2022-12-18T09:16:38;-4.10;39.10
10304;DHT22;5197;48.152;8.590;2022-12-18T09:19:06;-4.00;39.10
10304;DHT22;5197;48.152;8.590;2022-12-18T09:21:34;-4.00;39.00
10304;DHT22;5197;48.152;8.590;2022-12-18T09:24:04;-3.90;38.30
10304;DHT22;5197;48.152;8.590;2022-12-18T09:26:35;-4.00;38.20
10304;DHT22;5197;48.152;8.590;2022-12-18T09:29:04;-3.90;37.40
10304;DHT22;5197;48.152;8.590;2022-12-18T09:31:34;-3.90;37.20
10304;DHT22;5197;48.152;8.590;2022-12-18T09:34:02;-3.90;37.30
10304;DHT22;5197;48.152;8.590;2022-12-18T09:36:30;-3.90;37.60
10304;DHT22;5197;48.152;8.590;2022-12-18T09:38:56;-3.90;36.90
10304;DHT22;5197;48.152;8.590;2022-12-18T09:44:05;-3.80;36.30
10304;DHT22;5197;48.152;8.590;2022-12-18T09:46:44;-3.80;37.30
10304;DHT22;5197;48.152;8.590;2022-12-18T09:49:20;-3.80;36.80
10304;DHT22;5197;48.152;8.590;2022-12-18T09:51:50;-3.70;38.30
10304;DHT22;5197;48.152;8.590;2022-12-18T09:54:26;-3.60;37.10
10304;DHT22;5197;48.152;8.590;2022-12-18T09:56:57;-3.60;36.30
10304;DHT22;5197;48.152;8.590;2022-12-18T09:59:32;-3.60;36.40
10304;DHT22;5197;48.152;8.590;2022-12-18T10:02:22;-3.50;36.30
10304;DHT22;5197;48.152;8.590;2022-12-18T10:05:07;-3.50;36.40
10304;DHT22;5197;48.152;8.590;2022-12-18T10:07:47;-3.50;36.30
10304;DHT22;5197;48.152;8.590;2022-12-18T10:10:32;-3.40;36.50
10304;DHT22;5197;48.152;8.590;2022-12-18T10:16:30;-3.30;36.40
10304;DHT22;5197;48.152;8.590;2022-12-18T10:24:29;-3.10;36.60
10304;DHT22;5197;48.152;8.590;2022-12-18T10:27:16;-3.10;36.40
10304;DHT22;5197;48.152;8.590;2022-12-18T10:29:44;-3.00;36.20
10304;DHT22;5197;48.152;8.590;2022-12-18T10:32:20;-3.00;35.30
10304;DHT22;5197;48.152;8.590;2022-12-18T10:34:49;-3.00;34.80
10304;DHT22;5197;48.152;8.590;2022-12-18T10:37:28;-3.00;35.40
10304;DHT22;5197;48.152;8.590;2022-12-18T10:40:12;-3.00;33.90
10304;DHT22;5197;48.152;8.590;2022-12-18T10:43:10;-3.00;33.00
10304;DHT22;5197;48.152;8.590;2022-12-18T10:45:38;-3.00;35.80
10304;DHT22;5197;48.152;8.590;2022-12-18T10:48:18;-3.00;34.30
10304;DHT22;5197;48.152;8.590;2022-12-18T10:50:48;-3.00;34.20
10304;DHT22;5197;48.152;8.590;2022-12-18T10:53:37;-3.00;33.50
10304;DHT22;5197;48.152;8.590;2022-12-18T10:56:05;-3.10;32.60
10304;DHT22;5197;48.152;8.590;2022-12-18T10:58:38;-3.10;32.30
10304;DHT22;5197;48.152;8.590;2022-12-18T11:01:12;-3.10;34.20
10304;DHT22;5197;48.152;8.590;2022-12-18T11:04:04;-3.00;34.50
10304;DHT22;5197;48.152;8.590;2022-12-18T11:06:29;-3.00;33.70
10304;DHT22;5197;48.152;8.590;2022-12-18T11:09:06;-3.00;32.00
10304;DHT22;5197;48.152;8.590;2022-12-18T11:11:49;-3.00;33.20
10304;DHT22;5197;48.152;8.590;2022-12-18T11:16:56;-3.10;32.50
10304;DHT22;5197;48.152;8.590;2022-12-18T11:19:44;-3.10;33.20
10304;DHT22;5197;48.152;8.590;2022-12-18T11:22:27;-3.00;33.50
10304;DHT22;5197;48.152;8.590;2022-12-18T11:25:05;-3.00;33.40
10304;DHT22;5197;48.152;8.590;2022-12-18T11:27:55;-3.00;33.10
10304;DHT22;5197;48.152;8.590;2022-12-18T11:30:35;-2.10;31.40
10304;DHT22;5197;48.152;8.590;2022-12-18T11:33:06;-3.10;32.70
10304;DHT22;5197;48.152;8.590;2022-12-18T11:41:07;-2.90;33.20
10304;DHT22;5197;48.152;8.590;2022-12-18T11:43:55;-2.90;32.40
10304;DHT22;5197;48.152;8.590;2022-12-18T11:47:23;-2.90;32.80
10304;DHT22;5197;48.152;8.590;2022-12-18T11:49:34;-2.80;32.20
10304;DHT22;5197;48.152;8.590;2022-12-18T11:54:37;-2.80;32.20
10304;DHT22;5197;48.152;8.590;2022-12-18T12:14:26;-2.30;32.10
10304;DHT22;5197;48.152;8.590;2022-12-18T12:17:09;-2.30;30.90
10304;DHT22;5197;48.152;8.590;2022-12-18T12:25:10;-2.40;29.20
10304;DHT22;5197;48.152;8.590;2022-12-18T12:33:53;-2.40;30.20
10304;DHT22;5197;48.152;8.590;2022-12-18T12:39:20;-2.50;29.70
10304;DHT22;5197;48.152;8.590;2022-12-18T12:41:48;-2.50;31.50
10304;DHT22;5197;48.152;8.590;2022-12-18T12:44:50;-2.40;31.80
10304;DHT22;5197;48.152;8.590;2022-12-18T12:47:41;-2.40;30.60
10304;DHT22;5197;48.152;8.590;2022-12-18T12:50:17;-2.40;31.40
10304;DHT22;5197;48.152;8.590;2022-12-18T12:52:54;-2.30;31.90
10304;DHT22;5197;48.152;8.590;2022-12-18T12:55:25;-2.20;31.80
10304;DHT22;5197;48.152;8.590;2022-12-18T12:58:02;-2.20;31.80
10304;DHT22;5197;48.152;8.590;2022-12-18T13:09:33;-2.10;29.60
10304;DHT22;5197;48.152;8.590;2022-12-18T13:12:09;-2.20;29.90
10304;DHT22;5197;48.152;8.590;2022-12-18T13:15:21;-2.20;30.50
10304;DHT22;5197;48.152;8.590;2022-12-18T13:17:49;-2.20;30.60
10304;DHT22;5197;48.152;8.590;2022-12-18T13:20:41;-2.30;30.80
10304;DHT22;5197;48.152;8.590;2022-12-18T13:23:38;-2.30;31.20
10304;DHT22;5197;48.152;8.590;2022-12-18T13:31:14;-2.30;31.40
10304;DHT22;5197;48.152;8.590;2022-12-18T13:33:44;-2.30;31.10
10304;DHT22;5197;48.152;8.590;2022-12-18T13:36:33;-2.30;31.10
10304;DHT22;5197;48.152;8.590;2022-12-18T13:39:11;-2.30;31.80
10304;DHT22;5197;48.152;8.590;2022-12-18T13:41:38;-2.30;32.00
10304;DHT22;5197;48.152;8.590;2022-12-18T13:46:53;-2.30;31.60
10304;DHT22;5197;48.152;8.590;2022-12-18T13:49:38;-2.30;31.50
10304;DHT22;5197;48.152;8.590;2022-12-18T13:52:32;-2.40;31.10
10304;DHT22;5197;48.152;8.590;2022-12-18T13:55:02;-2.40;31.90
10304;DHT22;5197;48.152;8.590;2022-12-18T13:57:34;-2.30;32.10
10304;DHT22;5197;48.152;8.590;2022-12-18T14:00:28;-2.30;31.90
10304;DHT22;5197;48.152;8.590;2022-12-18T14:02:57;-2.30;31.70
10304;DHT22;5197;48.152;8.590;2022-12-18T14:05:32;-2.20;31.70
10304;DHT22;5197;48.152;8.590;2022-12-18T14:08:12;-2.20;31.60
10304;DHT22;5197;48.152;8.590;2022-12-18T14:10:42;-2.20;31.20
10304;DHT22;5197;48.152;8.590;2022-12-18T14:13:32;-2.20;31.60
10304;DHT22;5197;48.152;8.590;2022-12-18T14:16:03;-2.20;31.60
10304;DHT22;5197;48.152;8.590;2022-12-18T14:18:46;-2.10;31.00
10304;DHT22;5197;48.152;8.590;2022-12-18T14:21:30;-2.10;31.10
10304;DHT22;5197;48.152;8.590;2022-12-18T14:24:16;-2.10;31.00
10304;DHT22;5197;48.152;8.590;2022-12-18T14:26:47;-2.10;30.50
10304;DHT22;5197;48.152;8.590;2022-12-18T14:29:26;-2.20;30.80
10304;DHT22;5197;48.152;8.590;2022-12-18T14:37:13;-2.30;30.20
10304;DHT22;5197;48.152;8.590;2022-12-18T14:39:40;-2.30;30.50
10304;DHT22;5197;48.152;8.590;2022-12-18T14:42:18;-2.30;30.70
10304;DHT22;5197;48.152;8.590;2022-12-18T14:44:45;-2.30;31.10
10304;DHT22;5197;48.152;8.590;2022-12-18T14:47:32;-2.40;31.10
10304;DHT22;5197;48.152;8.590;2022-12-18T14:49:59;-2.40;31.30
10304;DHT22;5197;48.152;8.590;2022-12-18T14:52:28;-2.40;31.10
10304;DHT22;5197;48.152;8.590;2022-12-18T14:54:58;-2.40;31.10
10304;DHT22;5197;48.152;8.590;2022-12-18T14:57:29;-2.40;31.30
10304;DHT22;5197;48.152;8.590;2022-12-18T15:00:07;-2.40;31.30
10304;DHT22;5197;48.152;8.590;2022-12-18T15:02:35;-2.50;31.00
10304;DHT22;5197;48.152;8.590;2022-12-18T15:07:47;-2.50;31.70
10304;DHT22;5197;48.152;8.590;2022-12-18T15:10:17;-2.50;31.60
10304;DHT22;5197;48.152;8.590;2022-12-18T15:20:49;-2.60;31.50
10304;DHT22;5197;48.152;8.590;2022-12-18T15:23:24;-2.60;31.70
10304;DHT22;5197;48.152;8.590;2022-12-18T15:28:39;-2.70;31.40
10304;DHT22;5197;48.152;8.590;2022-12-18T15:33:59;-2.70;31.70
10304;DHT22;5197;48.152;8.590;2022-12-18T15:36:27;-2.70;31.50
10304;DHT22;5197;48.152;8.590;2022-12-18T15:38:55;-2.80;31.60
10304;DHT22;5197;48.152;8.590;2022-12-18T15:41:32;-2.80;31.90
10304;DHT22;5197;48.152;8.590;2022-12-18T15:44:03;-2.80;31.50
10304;DHT22;5197;48.152;8.590;2022-12-18T15:46:30;-2.80;31.50
10304;DHT22;5197;48.152;8.590;2022-12-18T15:48:58;-2.90;31.30
10304;DHT22;5197;48.152;8.590;2022-12-18T15:54:00;-2.90;32.00
10304;DHT22;5197;48.152;8.590;2022-12-18T15:56:28;-2.90;32.20
10304;DHT22;5197;48.152;8.590;2022-12-18T15:59:16;-3.00;32.20
10304;DHT22;5197;48.152;8.590;2022-12-18T16:01:46;-3.00;32.20
10304;DHT22;5197;48.152;8.590;2022-12-18T16:04:16;-3.00;32.50
10304;DHT22;5197;48.152;8.590;2022-12-18T16:06:44;-3.00;32.60
10304;DHT22;5197;48.152;8.590;2022-12-18T16:09:31;-3.00;32.50
10304;DHT22;5197;48.152;8.590;2022-12-18T16:11:58;-2.90;32.60
10304;DHT22;5197;48.152;8.590;2022-12-18T16:14:27;-2.90;32.70
10304;DHT22;5197;48.152;8.590;2022-12-18T16:17:08;-2.90;32.70
10304;DHT22;5197;48.152;8.590;2022-12-18T16:19:36;-2.90;32.70
10304;DHT22;5197;48.152;8.590;2022-12-18T16:22:03;-2.90;32.60
10304;DHT22;5197;48.152;8.590;2022-12-18T16:24:32;-3.00;32.80
10304;DHT22;5197;48.152;8.590;2022-12-18T16:27:00;-2.90;33.00
10304;DHT22;5197;48.152;8.590;2022-12-18T16:29:28;-3.00;32.90
10304;DHT22;5197;48.152;8.590;2022-12-18T16:32:00;-3.00;33.10
10304;DHT22;5197;48.152;8.590;2022-12-18T16:34:32;-3.00;33.40
10304;DHT22;5197;48.152;8.590;2022-12-18T16:37:04;-3.00;33.30
10304;DHT22;5197;48.152;8.590;2022-12-18T16:39:33;-3.00;33.30
10304;DHT22;5197;48.152;8.590;2022-12-18T16:42:02;-2.90;33.30
10304;DHT22;5197;48.152;8.590;2022-12-18T16:44:33;-2.90;33.60
10304;DHT22;5197;48.152;8.590;2022-12-18T16:47:00;-3.00;33.50
10304;DHT22;5197;48.152;8.590;2022-12-18T16:49:29;-3.00;33.60
10304;DHT22;5197;48.152;8.590;2022-12-18T16:51:56;-3.00;33.80
10304;DHT22;5197;48.152;8.590;2022-12-18T16:54:24;-3.00;33.90
10304;DHT22;5197;48.152;8.590;2022-12-18T16:56:51;-3.00;34.10
10304;DHT22;5197;48.152;8.590;2022-12-18T16:59:18;-2.80;34.80
10304;DHT22;5197;48.152;8.590;2022-12-18T17:01:46;-3.00;34.40
10304;DHT22;5197;48.152;8.590;2022-12-18T17:04:13;-3.00;35.70
10304;DHT22;5197;48.152;8.590;2022-12-18T17:06:43;-3.10;34.30
10304;DHT22;5197;48.152;8.590;2022-12-18T17:09:14;-3.10;34.70
10304;DHT22;5197;48.152;8.590;2022-12-18T17:11:42;-3.10;34.70
10304;DHT22;5197;48.152;8.590;2022-12-18T17:14:13;-3.10;34.70
10304;DHT22;5197;48.152;8.590;2022-12-18T17:16:41;-3.10;34.80
10304;DHT22;5197;48.152;8.590;2022-12-18T17:19:08;-3.10;34.70
10304;DHT22;5197;48.152;8.590;2022-12-18T17:21:44;-3.10;34.70
10304;DHT22;5197;48.152;8.590;2022-12-18T17:24:13;-4.10;34.00
10304;DHT22;5197;48.152;8.590;2022-12-18T17:26:40;-3.10;34.60
10304;DHT22;5197;48.152;8.590;2022-12-18T17:29:11;-3.10;34.50
10304;DHT22;5197;48.152;8.590;2022-12-18T17:31:39;-3.10;34.60
10304;DHT22;5197;48.152;8.590;2022-12-18T17:34:08;-3.10;34.40
10304;DHT22;5197;48.152;8.590;2022-12-18T17:36:35;-3.10;34.70
10304;DHT22;5197;48.152;8.590;2022-12-18T17:39:04;-3.10;35.00
10304;DHT22;5197;48.152;8.590;2022-12-18T17:41:32;-3.10;35.30
10304;DHT22;5197;48.152;8.590;2022-12-18T17:44:04;-2.00;36.40
10304;DHT22;5197;48.152;8.590;2022-12-18T17:46:32;-3.10;35.70
10304;DHT22;5197;48.152;8.590;2022-12-18T17:49:02;-3.10;35.60
10304;DHT22;5197;48.152;8.590;2022-12-18T17:51:30;-3.10;35.50
10304;DHT22;5197;48.152;8.590;2022-12-18T17:53:57;-3.10;35.40
10304;DHT22;5197;48.152;8.590;2022-12-18T17:56:25;-3.10;35.60
10304;DHT22;5197;48.152;8.590;2022-12-18T17:58:53;-3.10;35.70
10304;DHT22;5197;48.152;8.590;2022-12-18T18:01:22;-3.10;35.60
10304;DHT22;5197;48.152;8.590;2022-12-18T18:03:51;-3.10;35.80
10304;DHT22;5197;48.152;8.590;2022-12-18T18:06:20;-3.10;35.50
10304;DHT22;5197;48.152;8.590;2022-12-18T18:08:47;-3.00;35.50
10304;DHT22;5197;48.152;8.590;2022-12-18T18:11:17;-3.10;35.70